sensor_id;sensor_type;location;lat;lon;timestamp;P1;durP1;ratioP1;P2;durP2;ratioP2
5999;SDS011;3028;49.468;7.694;2023-08-06T00:00:40;1.27;;;1.17;;
5999;SDS011;3028;49.468;7.694;2023-08-06T00:02:42;2.65;;;1.70;;
5999;SDS011;3028;49.468;7.694;2023-08-06T00:04:44;4.35;;;1.35;;
5999;SDS011;3028;49.468;7.694;2023-08-06T00:06:45;2.53;;;1.50;;
5999;SDS011;3028;49.468;7.694;2023-08-06T00:08:47;1.50;;;1.38;;
5999;SDS011;3028;49.468;7.694;2023-08-06T00:10:49;2.95;;;1.40;;
5999;SDS011;3028;49.468;7.694;2023-08-06T00:12:51;1.48;;;1.38;;
5999;SDS011;3028;49.468;7.694;2023-08-06T00:14:52;1.92;;;1.60;;
5999;SDS011;3028;49.468;7.694;2023-08-06T00:16:54;2.08;;;1.30;;
5999;SDS011;3028;49.468;7.694;2023-08-06T00:18:56;4.07;;;1.50;;
5999;SDS011;3028;49.468;7.694;2023-08-06T00:20:58;3.97;;;1.25;;
5999;SDS011;3028;49.468;7.694;2023-08-06T00:23:00;3.90;;;1.73;;
5999;SDS011;3028;49.468;7.694;2023-08-06T00:25:02;2.10;;;1.40;;
5999;SDS011;3028;49.468;7.694;2023-08-06T00:27:04;2.45;;;1.27;;
5999;SDS011;3028;49.468;7.694;2023-08-06T00:29:06;1.40;;;1.30;;
5999;SDS011;3028;49.468;7.694;2023-08-06T00:31:08;2.55;;;1.52;;
5999;SDS011;3028;49.468;7.694;2023-08-06T00:33:10;4.75;;;1.20;;
5999;SDS011;3028;49.468;7.694;2023-08-06T00:35:11;3.00;;;1.58;;
5999;SDS011;3028;49.468;7.694;2023-08-06T00:37:17;1.20;;;1.10;;
5999;SDS011;3028;49.468;7.694;2023-08-06T00:39:19;3.45;;;1.38;;
5999;SDS011;3028;49.468;7.694;2023-08-06T00:41:21;1.27;;;1.15;;
5999;SDS011;3028;49.468;7.694;2023-08-06T00:43:23;4.03;;;1.80;;
5999;SDS011;3028;49.468;7.694;2023-08-06T00:45:24;1.95;;;1.55;;
5999;SDS011;3028;49.468;7.694;2023-08-06T00:47:26;1.55;;;1.42;;
5999;SDS011;3028;49.468;7.694;2023-08-06T00:49:28;1.67;;;1.27;;
5999;SDS011;3028;49.468;7.694;2023-08-06T00:51:34;2.38;;;1.27;;
5999;SDS011;3028;49.468;7.694;2023-08-06T00:53:37;1.60;;;1.42;;
5999;SDS011;3028;49.468;7.694;2023-08-06T00:55:39;3.13;;;1.30;;
5999;SDS011;3028;49.468;7.694;2023-08-06T00:57:41;1.88;;;1.33;;
5999;SDS011;3028;49.468;7.694;2023-08-06T00:59:43;3.28;;;1.52;;
5999;SDS011;3028;49.468;7.694;2023-08-06T01:01:45;2.17;;;1.50;;
5999;SDS011;3028;49.468;7.694;2023-08-06T01:03:47;1.42;;;1.27;;
5999;SDS011;3028;49.468;7.694;2023-08-06T01:05:48;2.03;;;1.55;;
5999;SDS011;3028;49.468;7.694;2023-08-06T01:08:05;3.55;;;1.58;;
5999;SDS011;3028;49.468;7.694;2023-08-06T01:17:06;3.00;;;0.90;;
5999;SDS011;3028;49.468;7.694;2023-08-06T01:19:17;0.80;;;0.80;;
5999;SDS011;3028;49.468;7.694;2023-08-06T01:21:20;1.50;;;1.20;;
5999;SDS011;3028;49.468;7.694;2023-08-06T01:23:21;1.65;;;1.17;;
5999;SDS011;3028;49.468;7.694;2023-08-06T01:25:26;3.03;;;1.30;;
5999;SDS011;3028;49.468;7.694;2023-08-06T01:27:38;1.15;;;1.00;;
5999;SDS011;3028;49.468;7.694;2023-08-06T01:31:58;2.30;;;0.95;;
5999;SDS011;3028;49.468;7.694;2023-08-06T01:34:01;1.92;;;1.10;;
5999;SDS011;3028;49.468;7.694;2023-08-06T01:36:04;1.63;;;1.17;;
5999;SDS011;3028;49.468;7.694;2023-08-06T01:38:07;3.10;;;1.00;;
5999;SDS011;3028;49.468;7.694;2023-08-06T01:40:12;2.42;;;1.13;;
5999;SDS011;3028;49.468;7.694;2023-08-06T01:42:15;1.42;;;1.17;;
5999;SDS011;3028;49.468;7.694;2023-08-06T01:44:16;3.33;;;1.40;;
5999;SDS011;3028;49.468;7.694;2023-08-06T01:46:18;1.67;;;1.08;;
5999;SDS011;3028;49.468;7.694;2023-08-06T01:48:20;1.38;;;1.20;;
5999;SDS011;3028;49.468;7.694;2023-08-06T01:50:22;3.88;;;1.27;;
5999;SDS011;3028;49.468;7.694;2023-08-06T01:52:23;2.78;;;1.33;;
5999;SDS011;3028;49.468;7.694;2023-08-06T01:54:25;1.98;;;1.23;;
5999;SDS011;3028;49.468;7.694;2023-08-06T01:56:27;2.53;;;0.93;;
5999;SDS011;3028;49.468;7.694;2023-08-06T01:58:29;4.65;;;1.13;;
5999;SDS011;3028;49.468;7.694;2023-08-06T02:00:30;3.15;;;1.20;;
5999;SDS011;3028;49.468;7.694;2023-08-06T02:02:32;1.10;;;0.88;;
5999;SDS011;3028;49.468;7.694;2023-08-06T02:04:35;3.63;;;1.10;;
5999;SDS011;3028;49.468;7.694;2023-08-06T02:06:37;1.63;;;0.80;;
5999;SDS011;3028;49.468;7.694;2023-08-06T02:08:38;2.40;;;0.80;;
5999;SDS011;3028;49.468;7.694;2023-08-06T02:10:41;3.28;;;1.10;;
5999;SDS011;3028;49.468;7.694;2023-08-06T02:12:43;2.13;;;0.82;;
5999;SDS011;3028;49.468;7.694;2023-08-06T02:14:44;1.60;;;1.00;;
5999;SDS011;3028;49.468;7.694;2023-08-06T02:16:46;1.33;;;0.90;;
5999;SDS011;3028;49.468;7.694;2023-08-06T02:18:48;5.22;;;1.30;;
5999;SDS011;3028;49.468;7.694;2023-08-06T02:20:56;1.08;;;0.90;;
5999;SDS011;3028;49.468;7.694;2023-08-06T02:22:59;1.75;;;0.90;;
5999;SDS011;3028;49.468;7.694;2023-08-06T02:25:01;2.05;;;0.93;;
5999;SDS011;3028;49.468;7.694;2023-08-06T02:27:03;1.83;;;0.80;;
5999;SDS011;3028;49.468;7.694;2023-08-06T02:29:05;1.95;;;1.10;;
5999;SDS011;3028;49.468;7.694;2023-08-06T02:31:06;2.38;;;1.13;;
5999;SDS011;3028;49.468;7.694;2023-08-06T02:33:08;1.92;;;1.40;;
5999;SDS011;3028;49.468;7.694;2023-08-06T02:35:10;1.00;;;0.90;;
5999;SDS011;3028;49.468;7.694;2023-08-06T02:37:12;2.45;;;1.05;;
5999;SDS011;3028;49.468;7.694;2023-08-06T02:39:13;1.58;;;1.00;;
5999;SDS011;3028;49.468;7.694;2023-08-06T02:41:18;2.03;;;1.00;;
5999;SDS011;3028;49.468;7.694;2023-08-06T02:43:20;2.70;;;0.95;;
5999;SDS011;3028;49.468;7.694;2023-08-06T02:45:22;1.30;;;0.82;;
5999;SDS011;3028;49.468;7.694;2023-08-06T02:47:23;3.40;;;0.98;;
5999;SDS011;3028;49.468;7.694;2023-08-06T02:49:25;3.15;;;1.30;;
5999;SDS011;3028;49.468;7.694;2023-08-06T02:51:27;1.25;;;0.90;;
5999;SDS011;3028;49.468;7.694;2023-08-06T02:53:29;1.85;;;0.80;;
5999;SDS011;3028;49.468;7.694;2023-08-06T02:55:31;3.92;;;1.00;;
5999;SDS011;3028;49.468;7.694;2023-08-06T02:57:32;1.58;;;0.70;;
5999;SDS011;3028;49.468;7.694;2023-08-06T02:59:34;0.47;;;0.47;;
5999;SDS011;3028;49.468;7.694;2023-08-06T03:01:36;0.80;;;0.80;;
5999;SDS011;3028;49.468;7.694;2023-08-06T03:03:37;1.20;;;0.77;;
5999;SDS011;3028;49.468;7.694;2023-08-06T03:05:39;0.73;;;0.73;;
5999;SDS011;3028;49.468;7.694;2023-08-06T03:07:41;0.65;;;0.65;;
5999;SDS011;3028;49.468;7.694;2023-08-06T03:09:43;2.28;;;0.80;;
5999;SDS011;3028;49.468;7.694;2023-08-06T03:11:44;0.65;;;0.50;;
5999;SDS011;3028;49.468;7.694;2023-08-06T03:13:46;1.48;;;0.82;;
5999;SDS011;3028;49.468;7.694;2023-08-06T03:15:55;0.40;;;0.40;;
5999;SDS011;3028;49.468;7.694;2023-08-06T03:17:57;0.80;;;0.57;;
5999;SDS011;3028;49.468;7.694;2023-08-06T03:19:59;3.42;;;1.88;;
5999;SDS011;3028;49.468;7.694;2023-08-06T03:22:01;1.30;;;0.57;;
5999;SDS011;3028;49.468;7.694;2023-08-06T03:24:03;0.57;;;0.50;;
5999;SDS011;3028;49.468;7.694;2023-08-06T03:26:05;1.20;;;0.95;;
5999;SDS011;3028;49.468;7.694;2023-08-06T03:28:06;0.60;;;0.60;;
5999;SDS011;3028;49.468;7.694;2023-08-06T03:30:08;1.35;;;0.63;;
5999;SDS011;3028;49.468;7.694;2023-08-06T03:32:10;1.45;;;0.32;;
5999;SDS011;3028;49.468;7.694;2023-08-06T03:34:12;2.05;;;0.50;;
5999;SDS011;3028;49.468;7.694;2023-08-06T03:36:14;0.90;;;0.50;;
5999;SDS011;3028;49.468;7.694;2023-08-06T03:38:15;0.63;;;0.50;;
5999;SDS011;3028;49.468;7.694;2023-08-06T03:40:17;0.60;;;0.50;;
5999;SDS011;3028;49.468;7.694;2023-08-06T03:42:19;1.35;;;0.63;;
5999;SDS011;3028;49.468;7.694;2023-08-06T03:44:20;2.42;;;0.60;;
5999;SDS011;3028;49.468;7.694;2023-08-06T03:46:22;0.60;;;0.43;;
5999;SDS011;3028;49.468;7.694;2023-08-06T03:48:24;0.63;;;0.50;;
5999;SDS011;3028;49.468;7.694;2023-08-06T03:50:26;0.40;;;0.40;;
5999;SDS011;3028;49.468;7.694;2023-08-06T03:52:27;13.85;;;2.90;;
5999;SDS011;3028;49.468;7.694;2023-08-06T03:54:29;0.40;;;0.40;;
5999;SDS011;3028;49.468;7.694;2023-08-06T03:56:31;0.50;;;0.50;;
5999;SDS011;3028;49.468;7.694;2023-08-06T03:58:33;0.30;;;0.30;;
5999;SDS011;3028;49.468;7.694;2023-08-06T04:00:34;0.52;;;0.50;;
5999;SDS011;3028;49.468;7.694;2023-08-06T04:02:36;1.30;;;0.63;;
5999;SDS011;3028;49.468;7.694;2023-08-06T04:04:38;0.30;;;0.30;;
5999;SDS011;3028;49.468;7.694;2023-08-06T04:06:40;0.50;;;0.50;;
5999;SDS011;3028;49.468;7.694;2023-08-06T04:08:41;0.40;;;0.40;;
5999;SDS011;3028;49.468;7.694;2023-08-06T04:10:43;0.38;;;0.35;;
5999;SDS011;3028;49.468;7.694;2023-08-06T04:12:45;0.35;;;0.32;;
5999;SDS011;3028;49.468;7.694;2023-08-06T04:14:47;1.05;;;0.40;;
5999;SDS011;3028;49.468;7.694;2023-08-06T04:16:48;1.20;;;0.47;;
5999;SDS011;3028;49.468;7.694;2023-08-06T04:18:50;1.10;;;0.45;;
5999;SDS011;3028;49.468;7.694;2023-08-06T04:20:52;0.35;;;0.35;;
5999;SDS011;3028;49.468;7.694;2023-08-06T04:22:56;1.27;;;1.17;;
5999;SDS011;3028;49.468;7.694;2023-08-06T04:24:58;0.45;;;0.30;;
5999;SDS011;3028;49.468;7.694;2023-08-06T04:26:59;0.95;;;0.40;;
5999;SDS011;3028;49.468;7.694;2023-08-06T04:29:01;1.17;;;0.57;;
5999;SDS011;3028;49.468;7.694;2023-08-06T04:31:03;0.45;;;0.45;;
5999;SDS011;3028;49.468;7.694;2023-08-06T04:33:05;0.40;;;0.40;;
5999;SDS011;3028;49.468;7.694;2023-08-06T04:35:06;0.75;;;0.45;;
5999;SDS011;3028;49.468;7.694;2023-08-06T04:37:08;0.45;;;0.45;;
5999;SDS011;3028;49.468;7.694;2023-08-06T04:39:10;1.05;;;0.60;;
5999;SDS011;3028;49.468;7.694;2023-08-06T04:41:12;1.45;;;0.70;;
5999;SDS011;3028;49.468;7.694;2023-08-06T04:43:13;0.60;;;0.60;;
5999;SDS011;3028;49.468;7.694;2023-08-06T04:45:15;0.32;;;0.32;;
5999;SDS011;3028;49.468;7.694;2023-08-06T04:47:17;0.60;;;0.60;;
5999;SDS011;3028;49.468;7.694;2023-08-06T04:49:20;0.90;;;0.50;;
5999;SDS011;3028;49.468;7.694;2023-08-06T04:51:22;2.03;;;0.50;;
5999;SDS011;3028;49.468;7.694;2023-08-06T04:53:23;0.52;;;0.50;;
5999;SDS011;3028;49.468;7.694;2023-08-06T04:55:25;1.25;;;0.60;;
5999;SDS011;3028;49.468;7.694;2023-08-06T04:57:27;1.05;;;0.50;;
5999;SDS011;3028;49.468;7.694;2023-08-06T04:59:28;0.73;;;0.50;;
5999;SDS011;3028;49.468;7.694;2023-08-06T05:01:30;1.20;;;0.60;;
5999;SDS011;3028;49.468;7.694;2023-08-06T05:03:32;0.85;;;0.70;;
5999;SDS011;3028;49.468;7.694;2023-08-06T05:05:34;0.98;;;0.95;;
5999;SDS011;3028;49.468;7.694;2023-08-06T05:07:35;0.40;;;0.40;;
5999;SDS011;3028;49.468;7.694;2023-08-06T05:09:37;0.45;;;0.45;;
5999;SDS011;3028;49.468;7.694;2023-08-06T05:11:41;1.58;;;0.45;;
5999;SDS011;3028;49.468;7.694;2023-08-06T05:13:42;0.75;;;0.55;;
5999;SDS011;3028;49.468;7.694;2023-08-06T05:15:44;0.35;;;0.35;;
5999;SDS011;3028;49.468;7.694;2023-08-06T05:17:47;1.23;;;0.60;;
5999;SDS011;3028;49.468;7.694;2023-08-06T05:19:49;0.50;;;0.50;;
5999;SDS011;3028;49.468;7.694;2023-08-06T05:21:51;0.80;;;0.50;;
5999;SDS011;3028;49.468;7.694;2023-08-06T05:23:53;0.70;;;0.70;;
5999;SDS011;3028;49.468;7.694;2023-08-06T05:25:54;0.77;;;0.60;;
5999;SDS011;3028;49.468;7.694;2023-08-06T05:27:56;0.80;;;0.43;;
5999;SDS011;3028;49.468;7.694;2023-08-06T05:29:58;3.63;;;0.98;;
5999;SDS011;3028;49.468;7.694;2023-08-06T05:32:00;0.60;;;0.52;;
5999;SDS011;3028;49.468;7.694;2023-08-06T05:34:01;2.95;;;0.60;;
5999;SDS011;3028;49.468;7.694;2023-08-06T05:36:04;0.90;;;0.63;;
5999;SDS011;3028;49.468;7.694;2023-08-06T05:38:06;0.70;;;0.45;;
5999;SDS011;3028;49.468;7.694;2023-08-06T05:40:08;0.75;;;0.63;;
5999;SDS011;3028;49.468;7.694;2023-08-06T05:42:10;0.50;;;0.50;;
5999;SDS011;3028;49.468;7.694;2023-08-06T05:44:12;0.68;;;0.68;;
5999;SDS011;3028;49.468;7.694;2023-08-06T05:46:13;1.35;;;0.65;;
5999;SDS011;3028;49.468;7.694;2023-08-06T05:48:15;0.80;;;0.70;;
5999;SDS011;3028;49.468;7.694;2023-08-06T05:50:17;0.88;;;0.65;;
5999;SDS011;3028;49.468;7.694;2023-08-06T05:52:19;0.60;;;0.60;;
5999;SDS011;3028;49.468;7.694;2023-08-06T05:54:21;0.70;;;0.60;;
5999;SDS011;3028;49.468;7.694;2023-08-06T05:56:22;0.93;;;0.63;;
5999;SDS011;3028;49.468;7.694;2023-08-06T05:58:24;0.63;;;0.63;;
5999;SDS011;3028;49.468;7.694;2023-08-06T06:00:27;0.60;;;0.47;;
5999;SDS011;3028;49.468;7.694;2023-08-06T06:02:29;0.85;;;0.40;;
5999;SDS011;3028;49.468;7.694;2023-08-06T06:04:31;0.47;;;0.47;;
5999;SDS011;3028;49.468;7.694;2023-08-06T06:06:33;0.70;;;0.50;;
5999;SDS011;3028;49.468;7.694;2023-08-06T06:08:34;0.82;;;0.77;;
5999;SDS011;3028;49.468;7.694;2023-08-06T06:10:36;0.40;;;0.40;;
5999;SDS011;3028;49.468;7.694;2023-08-06T06:12:38;0.73;;;0.40;;
5999;SDS011;3028;49.468;7.694;2023-08-06T06:14:40;0.60;;;0.60;;
5999;SDS011;3028;49.468;7.694;2023-08-06T06:16:42;0.63;;;0.50;;
5999;SDS011;3028;49.468;7.694;2023-08-06T06:18:43;0.85;;;0.50;;
5999;SDS011;3028;49.468;7.694;2023-08-06T06:20:45;0.93;;;0.70;;
5999;SDS011;3028;49.468;7.694;2023-08-06T06:22:47;0.47;;;0.40;;
5999;SDS011;3028;49.468;7.694;2023-08-06T06:24:49;0.80;;;0.50;;
5999;SDS011;3028;49.468;7.694;2023-08-06T06:26:50;0.70;;;0.70;;
5999;SDS011;3028;49.468;7.694;2023-08-06T06:28:52;0.40;;;0.40;;
5999;SDS011;3028;49.468;7.694;2023-08-06T06:30:59;0.43;;;0.43;;
5999;SDS011;3028;49.468;7.694;2023-08-06T06:33:01;0.40;;;0.40;;
5999;SDS011;3028;49.468;7.694;2023-08-06T06:35:03;0.40;;;0.40;;
5999;SDS011;3028;49.468;7.694;2023-08-06T06:37:06;0.45;;;0.40;;
5999;SDS011;3028;49.468;7.694;2023-08-06T06:39:07;1.23;;;0.40;;
5999;SDS011;3028;49.468;7.694;2023-08-06T06:41:09;0.70;;;0.40;;
5999;SDS011;3028;49.468;7.694;2023-08-06T06:43:11;0.60;;;0.40;;
5999;SDS011;3028;49.468;7.694;2023-08-06T06:45:13;0.40;;;0.40;;
5999;SDS011;3028;49.468;7.694;2023-08-06T06:47:14;0.45;;;0.45;;
5999;SDS011;3028;49.468;7.694;2023-08-06T06:49:16;0.40;;;0.40;;
5999;SDS011;3028;49.468;7.694;2023-08-06T06:51:18;0.40;;;0.40;;
5999;SDS011;3028;49.468;7.694;2023-08-06T06:53:20;1.30;;;0.68;;
5999;SDS011;3028;49.468;7.694;2023-08-06T06:55:21;0.65;;;0.65;;
5999;SDS011;3028;49.468;7.694;2023-08-06T06:57:23;0.90;;;0.63;;
5999;SDS011;3028;49.468;7.694;2023-08-06T06:59:25;1.05;;;0.77;;
5999;SDS011;3028;49.468;7.694;2023-08-06T07:01:27;1.35;;;0.60;;
5999;SDS011;3028;49.468;7.694;2023-08-06T07:03:29;0.82;;;0.60;;
5999;SDS011;3028;49.468;7.694;2023-08-06T07:05:30;1.60;;;0.80;;
5999;SDS011;3028;49.468;7.694;2023-08-06T07:07:32;0.80;;;0.73;;
5999;SDS011;3028;49.468;7.694;2023-08-06T07:09:34;7.07;;;1.08;;
5999;SDS011;3028;49.468;7.694;2023-08-06T07:11:36;1.38;;;0.60;;
5999;SDS011;3028;49.468;7.694;2023-08-06T07:13:38;0.80;;;0.70;;
5999;SDS011;3028;49.468;7.694;2023-08-06T07:15:39;0.95;;;0.73;;
5999;SDS011;3028;49.468;7.694;2023-08-06T07:17:44;0.90;;;0.80;;
5999;SDS011;3028;49.468;7.694;2023-08-06T07:19:46;3.85;;;1.00;;
5999;SDS011;3028;49.468;7.694;2023-08-06T07:21:48;1.67;;;0.80;;
5999;SDS011;3028;49.468;7.694;2023-08-06T07:23:49;0.60;;;0.60;;
5999;SDS011;3028;49.468;7.694;2023-08-06T07:25:51;0.80;;;0.60;;
5999;SDS011;3028;49.468;7.694;2023-08-06T07:27:53;1.00;;;0.70;;
5999;SDS011;3028;49.468;7.694;2023-08-06T07:29:55;0.63;;;0.60;;
5999;SDS011;3028;49.468;7.694;2023-08-06T07:31:56;0.50;;;0.50;;
5999;SDS011;3028;49.468;7.694;2023-08-06T07:33:58;0.75;;;0.70;;
5999;SDS011;3028;49.468;7.694;2023-08-06T07:36:06;0.50;;;0.50;;
5999;SDS011;3028;49.468;7.694;2023-08-06T07:38:09;0.50;;;0.50;;
5999;SDS011;3028;49.468;7.694;2023-08-06T07:40:11;0.50;;;0.50;;
5999;SDS011;3028;49.468;7.694;2023-08-06T07:42:13;0.40;;;0.40;;
5999;SDS011;3028;49.468;7.694;2023-08-06T07:44:15;0.85;;;0.50;;
5999;SDS011;3028;49.468;7.694;2023-08-06T07:46:16;0.40;;;0.40;;
5999;SDS011;3028;49.468;7.694;2023-08-06T07:48:18;0.40;;;0.40;;
5999;SDS011;3028;49.468;7.694;2023-08-06T07:50:20;0.52;;;0.40;;
5999;SDS011;3028;49.468;7.694;2023-08-06T07:52:21;0.40;;;0.40;;
5999;SDS011;3028;49.468;7.694;2023-08-06T07:54:23;0.85;;;0.55;;
5999;SDS011;3028;49.468;7.694;2023-08-06T07:56:25;0.47;;;0.47;;
5999;SDS011;3028;49.468;7.694;2023-08-06T07:58:27;0.90;;;0.40;;
5999;SDS011;3028;49.468;7.694;2023-08-06T08:00:31;0.50;;;0.50;;
5999;SDS011;3028;49.468;7.694;2023-08-06T08:02:32;0.40;;;0.40;;
5999;SDS011;3028;49.468;7.694;2023-08-06T08:04:34;1.20;;;0.40;;
5999;SDS011;3028;49.468;7.694;2023-08-06T08:06:36;0.40;;;0.40;;
5999;SDS011;3028;49.468;7.694;2023-08-06T08:08:38;0.45;;;0.45;;
5999;SDS011;3028;49.468;7.694;2023-08-06T08:10:40;0.40;;;0.40;;
5999;SDS011;3028;49.468;7.694;2023-08-06T08:12:42;0.70;;;0.47;;
5999;SDS011;3028;49.468;7.694;2023-08-06T08:14:44;0.50;;;0.38;;
5999;SDS011;3028;49.468;7.694;2023-08-06T08:16:46;0.40;;;0.40;;
5999;SDS011;3028;49.468;7.694;2023-08-06T08:18:48;0.35;;;0.35;;
5999;SDS011;3028;49.468;7.694;2023-08-06T08:20:50;0.30;;;0.30;;
5999;SDS011;3028;49.468;7.694;2023-08-06T08:22:52;0.70;;;0.30;;
5999;SDS011;3028;49.468;7.694;2023-08-06T08:24:54;0.30;;;0.30;;
5999;SDS011;3028;49.468;7.694;2023-08-06T08:26:56;1.45;;;0.32;;
5999;SDS011;3028;49.468;7.694;2023-08-06T08:28:57;0.40;;;0.40;;
5999;SDS011;3028;49.468;7.694;2023-08-06T08:30:59;0.40;;;0.40;;
5999;SDS011;3028;49.468;7.694;2023-08-06T08:33:01;0.30;;;0.30;;
5999;SDS011;3028;49.468;7.694;2023-08-06T08:35:03;1.08;;;0.50;;
5999;SDS011;3028;49.468;7.694;2023-08-06T08:37:05;0.25;;;0.25;;
5999;SDS011;3028;49.468;7.694;2023-08-06T08:39:10;0.50;;;0.50;;
5999;SDS011;3028;49.468;7.694;2023-08-06T08:41:11;0.43;;;0.43;;
5999;SDS011;3028;49.468;7.694;2023-08-06T08:43:13;0.70;;;0.52;;
5999;SDS011;3028;49.468;7.694;2023-08-06T08:45:16;0.70;;;0.40;;
5999;SDS011;3028;49.468;7.694;2023-08-06T08:47:20;0.57;;;0.57;;
5999;SDS011;3028;49.468;7.694;2023-08-06T08:49:21;0.60;;;0.60;;
5999;SDS011;3028;49.468;7.694;2023-08-06T08:51:25;0.30;;;0.30;;
5999;SDS011;3028;49.468;7.694;2023-08-06T08:53:28;0.77;;;0.63;;
5999;SDS011;3028;49.468;7.694;2023-08-06T08:55:30;0.45;;;0.45;;
5999;SDS011;3028;49.468;7.694;2023-08-06T08:57:33;0.52;;;0.50;;
5999;SDS011;3028;49.468;7.694;2023-08-06T08:59:35;0.35;;;0.35;;
5999;SDS011;3028;49.468;7.694;2023-08-06T09:01:37;0.90;;;0.47;;
5999;SDS011;3028;49.468;7.694;2023-08-06T09:03:39;1.55;;;0.40;;
5999;SDS011;3028;49.468;7.694;2023-08-06T09:05:45;0.68;;;0.40;;
5999;SDS011;3028;49.468;7.694;2023-08-06T09:07:51;0.30;;;0.30;;
5999;SDS011;3028;49.468;7.694;2023-08-06T09:09:54;0.40;;;0.40;;
5999;SDS011;3028;49.468;7.694;2023-08-06T09:11:59;0.38;;;0.38;;
5999;SDS011;3028;49.468;7.694;2023-08-06T09:14:03;0.30;;;0.30;;
5999;SDS011;3028;49.468;7.694;2023-08-06T09:16:05;0.43;;;0.30;;
5999;SDS011;3028;49.468;7.694;2023-08-06T09:18:10;0.50;;;0.40;;
5999;SDS011;3028;49.468;7.694;2023-08-06T09:20:13;0.38;;;0.38;;
5999;SDS011;3028;49.468;7.694;2023-08-06T09:22:15;0.32;;;0.32;;
5999;SDS011;3028;49.468;7.694;2023-08-06T09:24:17;0.40;;;0.30;;
5999;SDS011;3028;49.468;7.694;2023-08-06T09:26:19;0.95;;;0.30;;
5999;SDS011;3028;49.468;7.694;2023-08-06T09:28:21;0.30;;;0.30;;
5999;SDS011;3028;49.468;7.694;2023-08-06T09:30:30;0.95;;;0.30;;
5999;SDS011;3028;49.468;7.694;2023-08-06T09:32:48;0.30;;;0.30;;
5999;SDS011;3028;49.468;7.694;2023-08-06T09:34:56;1.23;;;0.75;;
5999;SDS011;3028;49.468;7.694;2023-08-06T09:36:58;0.20;;;0.20;;
5999;SDS011;3028;49.468;7.694;2023-08-06T09:39:00;0.40;;;0.40;;
5999;SDS011;3028;49.468;7.694;2023-08-06T09:41:01;0.40;;;0.40;;
5999;SDS011;3028;49.468;7.694;2023-08-06T09:43:06;2.25;;;0.30;;
5999;SDS011;3028;49.468;7.694;2023-08-06T09:45:08;0.30;;;0.30;;
5999;SDS011;3028;49.468;7.694;2023-08-06T09:47:10;0.82;;;0.47;;
5999;SDS011;3028;49.468;7.694;2023-08-06T09:49:12;0.50;;;0.50;;
5999;SDS011;3028;49.468;7.694;2023-08-06T09:51:13;0.47;;;0.47;;
5999;SDS011;3028;49.468;7.694;2023-08-06T09:53:15;3.20;;;0.40;;
5999;SDS011;3028;49.468;7.694;2023-08-06T09:55:17;0.50;;;0.50;;
5999;SDS011;3028;49.468;7.694;2023-08-06T09:57:22;0.75;;;0.50;;
5999;SDS011;3028;49.468;7.694;2023-08-06T09:59:26;0.60;;;0.40;;
5999;SDS011;3028;49.468;7.694;2023-08-06T10:01:28;0.40;;;0.40;;
5999;SDS011;3028;49.468;7.694;2023-08-06T10:03:30;0.40;;;0.30;;
5999;SDS011;3028;49.468;7.694;2023-08-06T10:05:32;0.47;;;0.40;;
5999;SDS011;3028;49.468;7.694;2023-08-06T10:07:34;0.75;;;0.35;;
5999;SDS011;3028;49.468;7.694;2023-08-06T10:09:37;0.60;;;0.60;;
5999;SDS011;3028;49.468;7.694;2023-08-06T10:11:38;0.40;;;0.40;;
5999;SDS011;3028;49.468;7.694;2023-08-06T10:13:40;0.38;;;0.38;;
5999;SDS011;3028;49.468;7.694;2023-08-06T10:15:42;0.35;;;0.35;;
5999;SDS011;3028;49.468;7.694;2023-08-06T10:17:44;0.40;;;0.40;;
5999;SDS011;3028;49.468;7.694;2023-08-06T10:19:51;0.40;;;0.40;;
5999;SDS011;3028;49.468;7.694;2023-08-06T10:22:15;0.75;;;0.50;;
5999;SDS011;3028;49.468;7.694;2023-08-06T10:24:18;0.40;;;0.30;;
5999;SDS011;3028;49.468;7.694;2023-08-06T10:26:20;0.40;;;0.40;;
5999;SDS011;3028;49.468;7.694;2023-08-06T10:28:22;0.57;;;0.50;;
5999;SDS011;3028;49.468;7.694;2023-08-06T10:35:05;0.52;;;0.52;;
5999;SDS011;3028;49.468;7.694;2023-08-06T10:37:09;0.50;;;0.50;;
5999;SDS011;3028;49.468;7.694;2023-08-06T10:39:13;0.60;;;0.60;;
5999;SDS011;3028;49.468;7.694;2023-08-06T10:41:30;0.63;;;0.63;;
5999;SDS011;3028;49.468;7.694;2023-08-06T10:45:35;0.50;;;0.50;;
5999;SDS011;3028;49.468;7.694;2023-08-06T10:47:38;0.60;;;0.50;;
5999;SDS011;3028;49.468;7.694;2023-08-06T10:49:44;0.40;;;0.40;;
5999;SDS011;3028;49.468;7.694;2023-08-06T10:51:46;0.40;;;0.40;;
5999;SDS011;3028;49.468;7.694;2023-08-06T10:53:48;0.47;;;0.47;;
5999;SDS011;3028;49.468;7.694;2023-08-06T10:55:51;0.70;;;0.60;;
5999;SDS011;3028;49.468;7.694;2023-08-06T10:57:53;1.00;;;1.00;;
5999;SDS011;3028;49.468;7.694;2023-08-06T10:59:56;0.63;;;0.63;;
5999;SDS011;3028;49.468;7.694;2023-08-06T11:02:16;1.65;;;0.70;;
5999;SDS011;3028;49.468;7.694;2023-08-06T11:04:18;0.50;;;0.50;;
5999;SDS011;3028;49.468;7.694;2023-08-06T11:06:20;13.82;;;0.95;;
5999;SDS011;3028;49.468;7.694;2023-08-06T11:08:23;0.63;;;0.63;;
5999;SDS011;3028;49.468;7.694;2023-08-06T11:10:28;0.60;;;0.60;;
5999;SDS011;3028;49.468;7.694;2023-08-06T11:12:31;1.30;;;0.80;;
5999;SDS011;3028;49.468;7.694;2023-08-06T11:14:33;1.33;;;1.15;;
5999;SDS011;3028;49.468;7.694;2023-08-06T11:16:34;0.70;;;0.70;;
5999;SDS011;3028;49.468;7.694;2023-08-06T11:18:36;0.73;;;0.73;;
5999;SDS011;3028;49.468;7.694;2023-08-06T11:20:38;1.67;;;1.00;;
5999;SDS011;3028;49.468;7.694;2023-08-06T11:22:40;1.35;;;0.80;;
5999;SDS011;3028;49.468;7.694;2023-08-06T11:24:42;0.80;;;0.80;;
5999;SDS011;3028;49.468;7.694;2023-08-06T11:26:44;2.72;;;1.00;;
5999;SDS011;3028;49.468;7.694;2023-08-06T11:28:46;1.15;;;0.70;;
5999;SDS011;3028;49.468;7.694;2023-08-06T11:30:48;1.67;;;1.00;;
5999;SDS011;3028;49.468;7.694;2023-08-06T11:32:50;3.67;;;0.90;;
5999;SDS011;3028;49.468;7.694;2023-08-06T11:34:52;1.42;;;1.05;;
5999;SDS011;3028;49.468;7.694;2023-08-06T11:36:56;1.27;;;0.70;;
5999;SDS011;3028;49.468;7.694;2023-08-06T11:39:01;1.00;;;0.80;;
5999;SDS011;3028;49.468;7.694;2023-08-06T11:41:04;0.95;;;0.60;;
5999;SDS011;3028;49.468;7.694;2023-08-06T11:43:10;0.88;;;0.88;;
5999;SDS011;3028;49.468;7.694;2023-08-06T11:45:15;1.60;;;0.93;;
5999;SDS011;3028;49.468;7.694;2023-08-06T11:47:17;0.98;;;0.93;;
5999;SDS011;3028;49.468;7.694;2023-08-06T11:49:19;0.80;;;0.70;;
5999;SDS011;3028;49.468;7.694;2023-08-06T11:51:23;1.10;;;0.70;;
5999;SDS011;3028;49.468;7.694;2023-08-06T11:53:28;0.70;;;0.60;;
5999;SDS011;3028;49.468;7.694;2023-08-06T11:55:30;0.70;;;0.57;;
5999;SDS011;3028;49.468;7.694;2023-08-06T11:57:32;0.95;;;0.77;;
5999;SDS011;3028;49.468;7.694;2023-08-06T11:59:38;0.52;;;0.50;;
5999;SDS011;3028;49.468;7.694;2023-08-06T12:01:40;0.50;;;0.50;;
5999;SDS011;3028;49.468;7.694;2023-08-06T12:03:42;1.38;;;0.80;;
5999;SDS011;3028;49.468;7.694;2023-08-06T12:05:44;0.95;;;0.60;;
5999;SDS011;3028;49.468;7.694;2023-08-06T12:07:48;0.60;;;0.60;;
5999;SDS011;3028;49.468;7.694;2023-08-06T12:09:51;0.73;;;0.70;;
5999;SDS011;3028;49.468;7.694;2023-08-06T12:11:53;0.75;;;0.65;;
5999;SDS011;3028;49.468;7.694;2023-08-06T12:13:55;1.23;;;0.90;;
5999;SDS011;3028;49.468;7.694;2023-08-06T12:15:58;3.75;;;0.85;;
5999;SDS011;3028;49.468;7.694;2023-08-06T12:17:59;1.13;;;0.70;;
5999;SDS011;3028;49.468;7.694;2023-08-06T12:20:02;0.70;;;0.70;;
5999;SDS011;3028;49.468;7.694;2023-08-06T12:22:05;0.60;;;0.60;;
5999;SDS011;3028;49.468;7.694;2023-08-06T12:24:07;3.72;;;0.75;;
5999;SDS011;3028;49.468;7.694;2023-08-06T12:26:09;0.80;;;0.80;;
5999;SDS011;3028;49.468;7.694;2023-08-06T12:28:10;0.68;;;0.60;;
5999;SDS011;3028;49.468;7.694;2023-08-06T12:30:13;1.75;;;0.73;;
5999;SDS011;3028;49.468;7.694;2023-08-06T12:32:15;1.38;;;1.15;;
5999;SDS011;3028;49.468;7.694;2023-08-06T12:34:17;0.70;;;0.70;;
5999;SDS011;3028;49.468;7.694;2023-08-06T12:36:18;0.85;;;0.57;;
5999;SDS011;3028;49.468;7.694;2023-08-06T12:38:20;0.55;;;0.55;;
5999;SDS011;3028;49.468;7.694;2023-08-06T12:40:22;0.60;;;0.60;;
5999;SDS011;3028;49.468;7.694;2023-08-06T12:42:37;0.68;;;0.50;;
5999;SDS011;3028;49.468;7.694;2023-08-06T12:44:38;0.50;;;0.50;;
5999;SDS011;3028;49.468;7.694;2023-08-06T12:46:40;2.17;;;0.60;;
5999;SDS011;3028;49.468;7.694;2023-08-06T12:48:42;2.30;;;0.70;;
5999;SDS011;3028;49.468;7.694;2023-08-06T12:50:44;0.47;;;0.40;;
5999;SDS011;3028;49.468;7.694;2023-08-06T12:52:45;1.52;;;0.63;;
5999;SDS011;3028;49.468;7.694;2023-08-06T12:54:47;0.50;;;0.50;;
5999;SDS011;3028;49.468;7.694;2023-08-06T12:56:49;0.60;;;0.60;;